Aeroporto :
LOGIN :

Iscrizione | Disclaimer

   EN    FR    IT 

 










Sommario :    VFR   VFR Marginale   IFR   IFR Intensivo   IFR Molto Intensivo
Visibilità : 
Base nubi : 
>= 8 km
>= 3000ft
5 / 8 km
1000 / 3000 ft
1500m / 5 km
500 / 1000 ft
800 / 1500m
200 / 500 ft
< 800m
< 200 ft
Simboli :   Temporali  Nebbia  Neve Forte  Precipitazioni Forti  Vento > 20 kt
SIGMETs :   Varie  Temporali  Ghiacco  Turbolenza  Onda orograficha  Ceneri Vulcaniche






- Altitudine del aeroporto : 140 ft
- Codice IATA : NYO


ESKN - Skavsta

ULTIMO METAR :
  • 310650Z 18007KT 9999 BKN005 07/07 Q1020

METARs OBSOLETI :
  • 310620Z 17006KT 140V200 9999 BKN005 07/07 Q1019
  • 310550Z 15005KT 9000 SCT004 BKN006 06/06 Q1019
  • 310520Z 17005KT 8000 FEW003 BKN008 06/06 Q1019
  • 310450Z 12005KT 6000 BKN007 05/05 Q1019
  • 310420Z VRB02KT 6000 BKN004 05/05 Q1020

TAF TAF ESKN
Valido dal 31 a 06 ore il 01 a 06 ore UTC


310530Z 3106/0106 VRB02KT 6000 BKN007
PROB40 3106/3108 0700 FG VV002
PROB40 3108/3111 4000 BR SCT009 BKN020
BECMG 3111/3113 BKN020
PROB40 3113/0106 4000 BR BKN005
BECMG 3122/3124 17010KT
PROB40 0104/0106 18015G25KT



MetMap, La meteo Aeronautica in un colpo d'occhio ! - Copyright ORBIFLY Dicembre 2007 - Disclaimer

ORBIFLY MET'MAP TEAM :

Programmazione e sviluppo : Alexandra Zaïnal
Concezione : Baudouin d'Aumeries
Aiuto per la programmazione : Marc-Olivier Méhu
Supporto tecnico e logistico : Manuel Goepfert
Aiuto per la traduzione : Arnaldo La Scala

Contatto : metmap@orbifly.com




FONTI E CREDITI :

   NOAA